createdAt,value
2019-01-22T00:01:43.447Z,109.63
2019-01-22T00:04:19.235Z,107.70
2019-01-22T00:06:54.738Z,96.60
2019-01-22T00:09:28.998Z,96.97
2019-01-22T00:12:04.121Z,106.43
2019-01-22T00:14:39.709Z,100.65
2019-01-22T00:17:13.840Z,98.77
2019-01-22T00:19:47.635Z,104.37
2019-01-22T00:22:21.942Z,104.97
2019-01-22T00:24:57.658Z,108.80
2019-01-22T00:27:31.852Z,117.23
2019-01-22T00:30:07.679Z,116.35
2019-01-22T00:32:43.360Z,117.83
2019-01-22T00:35:18.877Z,109.43
2019-01-22T00:37:52.739Z,120.03
2019-01-22T00:40:26.395Z,135.20
2019-01-22T00:43:01.383Z,121.27
2019-01-22T00:45:36.055Z,130.40
2019-01-22T00:48:11.606Z,110.83
2019-01-22T00:50:45.993Z,124.50
2019-01-22T00:53:21.529Z,103.27
2019-01-22T00:55:58.996Z,120.03
2019-01-22T00:58:33.107Z,112.77
2019-01-22T01:01:08.651Z,118.97
2019-01-22T01:03:43.701Z,102.07
2019-01-22T01:06:18.006Z,120.43
2019-01-22T01:08:52.016Z,122.40
2019-01-22T01:11:25.794Z,106.63
2019-01-22T01:13:59.547Z,113.90
2019-01-22T01:16:33.466Z,113.43
2019-01-22T01:19:26.404Z,101.97
2019-01-22T01:22:00.496Z,116.07
2019-01-22T01:24:34.822Z,110.00
2019-01-22T01:27:08.960Z,104.20
2019-01-22T01:29:42.888Z,121.37
2019-01-22T01:32:16.949Z,138.87
2019-01-22T01:34:51.312Z,127.50
2019-01-22T01:37:25.316Z,168.33
2019-01-22T01:39:59.400Z,134.78
2019-01-22T01:42:33.343Z,149.20
2019-01-22T01:45:10.305Z,148.80
2019-01-22T01:47:44.575Z,150.83
2019-01-22T01:50:19.476Z,122.90
2019-01-22T01:52:53.419Z,121.00
2019-01-22T01:55:27.707Z,147.23
2019-01-22T01:58:01.951Z,129.00
2019-01-22T02:00:37.129Z,124.30
2019-01-22T02:03:13.808Z,125.80
2019-01-22T02:05:47.634Z,118.60
2019-01-22T02:08:22.933Z,114.40
2019-01-22T02:10:58.151Z,131.57
2019-01-22T02:13:53.320Z,110.13
2019-01-22T02:16:59.241Z,111.50
2019-01-22T02:19:42.094Z,129.90
2019-01-22T02:22:36.294Z,107.33
2019-01-22T02:25:15.010Z,112.90
2019-01-22T02:27:56.781Z,123.33
2019-01-22T02:30:45.079Z,117.73
2019-01-22T02:33:48.639Z,118.70
2019-01-22T02:36:39.539Z,101.20
2019-01-22T02:39:24.619Z,106.52
2019-01-22T02:42:04.519Z,104.60
2019-01-22T02:45:20.256Z,103.67
2019-01-22T02:48:05.630Z,97.80
2019-01-22T02:51:19.526Z,90.10
2019-01-22T02:53:59.055Z,103.30
2019-01-22T02:56:53.461Z,89.83
2019-01-22T02:59:50.368Z,96.07
2019-01-22T03:02:33.988Z,93.23
2019-01-22T03:05:30.834Z,100.38
2019-01-22T03:08:47.976Z,94.65
2019-01-22T03:11:33.110Z,103.50
2019-01-22T03:14:24.207Z,89.63
2019-01-22T03:17:05.965Z,95.83
2019-01-22T03:19:45.096Z,94.63
2019-01-22T03:22:36.258Z,93.83
2019-01-22T03:25:24.365Z,108.97
2019-01-22T03:28:03.456Z,95.67
2019-01-22T03:30:58.922Z,92.57
2019-01-22T03:33:44.405Z,90.63
2019-01-22T03:36:54.405Z,88.43
2019-01-22T03:43:08.451Z,82.57
2019-01-22T03:45:47.204Z,83.17
2019-01-22T03:49:18.259Z,95.83
2019-01-22T03:52:10.400Z,91.85
2019-01-22T03:55:11.737Z,98.73
2019-01-22T03:57:46.615Z,90.00
2019-01-22T04:00:24.723Z,80.70
2019-01-22T04:02:59.761Z,87.03
2019-01-22T04:05:35.423Z,96.57
2019-01-22T04:08:13.019Z,82.60
2019-01-22T04:10:47.780Z,87.43
2019-01-22T04:13:30.362Z,75.20
2019-01-22T04:16:07.611Z,80.37
2019-01-22T04:18:42.316Z,93.00
2019-01-22T04:21:18.654Z,88.43
2019-01-22T04:24:01.778Z,77.70
2019-01-22T04:26:53.226Z,90.57
2019-01-22T04:29:59.556Z,83.03
2019-01-22T04:33:07.734Z,80.97
2019-01-22T04:36:04.823Z,82.60
2019-01-22T04:38:41.447Z,71.10
2019-01-22T04:41:24.012Z,68.05
2019-01-22T04:44:24.574Z,73.67
2019-01-22T04:47:06.601Z,95.97
2019-01-22T04:50:23.495Z,85.27
2019-01-22T04:53:21.603Z,87.50
2019-01-22T04:56:26.629Z,91.90
2019-01-22T04:59:07.404Z,77.70
2019-01-22T05:01:59.273Z,61.83
2019-01-22T05:04:39.366Z,51.00
2019-01-22T05:07:51.555Z,62.90
2019-01-22T05:10:43.162Z,45.60
2019-01-22T05:13:25.793Z,51.70
2019-01-22T05:16:08.334Z,43.50
2019-01-22T05:19:03.671Z,44.23
2019-01-22T05:21:49.556Z,44.73
2019-01-22T05:24:58.214Z,50.60
2019-01-22T05:27:36.463Z,40.57
2019-01-22T05:30:37.584Z,48.63
2019-01-22T05:33:23.976Z,38.77
2019-01-22T05:36:09.316Z,50.23
2019-01-22T05:39:17.438Z,53.92
2019-01-22T05:42:15.727Z,61.33
2019-01-22T05:44:52.053Z,52.60
2019-01-22T05:47:51.414Z,59.13
2019-01-22T05:53:47.711Z,57.77
2019-01-22T05:56:26.886Z,51.07
2019-01-22T05:59:40.243Z,47.30
2019-01-22T06:02:16.064Z,52.10
2019-01-22T06:05:11.670Z,58.23
2019-01-22T06:08:06.493Z,63.50
2019-01-22T06:10:59.325Z,71.15
2019-01-22T06:13:51.159Z,55.67
2019-01-22T06:17:06.557Z,54.93
2019-01-22T06:20:01.948Z,48.77
2019-01-22T06:22:59.870Z,57.30
2019-01-22T06:26:08.727Z,58.30
2019-01-22T06:29:04.243Z,57.97
2019-01-22T06:31:43.101Z,36.90
2019-01-22T06:38:11.167Z,46.60
2019-01-22T06:41:25.009Z,52.23
2019-01-22T06:44:26.411Z,46.53
2019-01-22T06:47:16.577Z,48.60
2019-01-22T06:50:28.593Z,48.77
2019-01-22T06:53:20.894Z,38.03
2019-01-22T06:56:36.998Z,34.13
2019-01-22T06:59:21.779Z,33.13
2019-01-22T07:02:13.154Z,30.97
2019-01-22T07:04:58.471Z,27.27
2019-01-22T07:07:52.563Z,31.27
2019-01-22T07:10:34.429Z,31.73
2019-01-22T07:13:22.123Z,36.20
2019-01-22T07:16:31.756Z,28.07
2019-01-22T07:19:15.249Z,39.57
2019-01-22T07:21:56.688Z,36.27
2019-01-22T07:24:46.708Z,32.87
2019-01-22T07:27:42.822Z,21.50
2019-01-22T07:30:29.688Z,27.93
2019-01-22T07:33:30.294Z,41.87
2019-01-22T07:36:14.171Z,25.93
2019-01-22T07:38:59.525Z,27.37
2019-01-22T07:41:58.619Z,34.05
2019-01-22T07:44:35.703Z,25.27
2019-01-22T07:47:29.608Z,36.97
2019-01-22T07:50:22.191Z,34.43
2019-01-22T07:53:01.885Z,29.85
2019-01-22T07:55:53.356Z,32.37
2019-01-22T07:58:39.015Z,27.20
2019-01-22T08:01:19.273Z,27.70
2019-01-22T08:04:19.363Z,27.87
2019-01-22T08:07:23.584Z,29.43
2019-01-22T08:10:23.007Z,34.97
2019-01-22T08:12:59.453Z,35.55
2019-01-22T08:15:47.734Z,40.33
2019-01-22T08:18:56.968Z,33.88
2019-01-22T08:22:05.188Z,36.10
2019-01-22T08:24:50.308Z,37.60
2019-01-22T08:27:55.072Z,45.85
2019-01-22T08:30:46.100Z,51.20
2019-01-22T08:33:28.582Z,53.60
2019-01-22T08:36:10.781Z,46.47
2019-01-22T08:39:06.018Z,45.93
2019-01-22T08:42:00.995Z,53.40
2019-01-22T08:45:03.094Z,45.80
2019-01-22T08:48:28.480Z,40.93
2019-01-22T08:54:00.017Z,42.25
2019-01-22T08:56:58.020Z,54.87
2019-01-22T08:59:53.516Z,44.90
2019-01-22T09:03:01.646Z,53.20
2019-01-22T09:06:19.368Z,50.33
2019-01-22T09:09:15.385Z,51.90
2019-01-22T09:12:12.437Z,60.80
2019-01-22T09:14:54.783Z,54.18
2019-01-22T09:17:42.931Z,59.77
2019-01-22T09:20:39.094Z,70.60
2019-01-22T09:23:59.197Z,76.75
2019-01-22T09:26:52.949Z,72.50
2019-01-22T09:29:35.592Z,77.63
2019-01-22T09:32:35.127Z,73.53
2019-01-22T09:35:44.382Z,97.33
2019-01-22T09:38:21.735Z,111.95
2019-01-22T09:40:56.147Z,113.67
2019-01-22T09:43:34.338Z,144.57
2019-01-22T09:46:10.159Z,145.17
2019-01-22T09:48:45.244Z,133.33
2019-01-22T09:51:20.635Z,155.27
2019-01-22T09:53:54.787Z,149.70
2019-01-22T09:56:36.033Z,185.70
2019-01-22T10:01:50.318Z,193.43
2019-01-22T10:04:27.804Z,217.60
2019-01-22T10:07:05.932Z,191.10
2019-01-22T10:09:41.916Z,204.93
2019-01-22T10:12:28.793Z,243.00
2019-01-22T10:15:17.427Z,228.20
2019-01-22T10:17:49.673Z,250.47
2019-01-22T10:20:27.282Z,243.00
2019-01-22T10:23:04.490Z,248.70
2019-01-22T10:25:39.396Z,240.93
2019-01-22T10:28:16.163Z,248.32
2019-01-22T10:30:57.104Z,253.20
2019-01-22T10:33:33.696Z,279.65
2019-01-22T10:36:11.855Z,252.87
2019-01-22T10:38:48.879Z,264.53
2019-01-22T10:41:30.327Z,285.70
2019-01-22T10:44:14.331Z,268.93
2019-01-22T10:46:52.198Z,301.03
2019-01-22T10:49:28.258Z,310.13
2019-01-22T10:52:08.909Z,292.55
2019-01-22T10:54:51.500Z,302.33
2019-01-22T10:57:29.400Z,299.23
2019-01-22T11:00:08.167Z,316.70
2019-01-22T11:02:46.202Z,300.37
2019-01-22T11:05:26.245Z,325.90
2019-01-22T11:08:06.134Z,322.40
2019-01-22T11:10:43.802Z,332.80
2019-01-22T11:13:38.615Z,333.67
2019-01-22T11:16:15.858Z,306.87
2019-01-22T11:18:54.788Z,329.87
2019-01-22T11:21:31.417Z,323.02
2019-01-22T11:24:30.207Z,333.30
2019-01-22T11:27:00.733Z,325.20
2019-01-22T11:29:40.103Z,348.57
2019-01-22T11:32:18.277Z,348.07
2019-01-22T11:34:54.697Z,326.15
2019-01-22T11:37:30.386Z,322.63
2019-01-22T11:40:06.178Z,328.77
2019-01-22T11:42:42.954Z,322.63
2019-01-22T11:45:24.788Z,325.67
2019-01-22T11:47:59.348Z,335.07
2019-01-22T11:50:35.699Z,360.47
2019-01-22T11:53:11.041Z,365.77
2019-01-22T11:55:50.568Z,353.50
2019-01-22T11:58:24.606Z,350.43
2019-01-22T12:01:04.983Z,379.17
2019-01-22T12:03:40.388Z,354.67
2019-01-22T12:06:17.965Z,351.52
2019-01-22T12:09:13.665Z,357.05
2019-01-22T12:11:51.515Z,358.00
2019-01-22T12:14:26.981Z,357.70
2019-01-22T12:17:07.111Z,354.00
2019-01-22T12:19:53.242Z,365.52
2019-01-22T12:22:28.820Z,367.03
2019-01-22T12:25:04.724Z,361.50
2019-01-22T12:27:40.901Z,338.43
2019-01-22T12:30:32.951Z,352.80
2019-01-22T12:33:11.775Z,371.53
2019-01-22T12:35:49.927Z,347.40
2019-01-22T12:38:25.747Z,339.60
2019-01-22T12:41:01.748Z,347.03
2019-01-22T12:43:37.566Z,314.60
2019-01-22T12:46:12.973Z,316.17
2019-01-22T12:48:55.555Z,324.03
2019-01-22T12:51:31.935Z,308.00
2019-01-22T12:54:07.450Z,300.53
2019-01-22T12:56:53.288Z,318.20
2019-01-22T12:59:31.279Z,295.10
2019-01-22T13:02:06.639Z,306.00
2019-01-22T13:04:43.280Z,277.17
2019-01-22T13:07:19.273Z,278.67
2019-01-22T13:09:58.714Z,291.20
2019-01-22T13:12:38.840Z,266.82
2019-01-22T13:15:15.475Z,266.70
2019-01-22T13:17:52.271Z,266.77
2019-01-22T13:20:27.430Z,264.00
2019-01-22T13:23:03.392Z,258.27
2019-01-22T13:25:45.315Z,256.10
2019-01-22T13:28:21.562Z,253.40
2019-01-22T13:31:00.436Z,257.60
2019-01-22T13:33:37.157Z,251.97
2019-01-22T13:36:12.737Z,254.85
2019-01-22T13:38:50.993Z,258.97
2019-01-22T13:41:30.886Z,257.37
2019-01-22T13:44:10.679Z,237.50
2019-01-22T13:46:45.757Z,241.48
2019-01-22T13:49:21.451Z,234.00
2019-01-22T13:51:57.242Z,248.67
2019-01-22T13:54:37.289Z,242.83
2019-01-22T13:57:14.749Z,239.10
2019-01-22T13:59:50.435Z,250.83
2019-01-22T14:02:28.543Z,241.23
2019-01-22T14:05:08.593Z,233.17
2019-01-22T14:07:51.447Z,220.40
2019-01-22T14:10:33.210Z,223.93
2019-01-22T14:13:11.719Z,161.50
2019-01-22T14:15:50.743Z,170.03
2019-01-22T14:18:25.632Z,190.90
2019-01-22T14:21:16.026Z,196.33
2019-01-22T14:23:51.601Z,182.07
2019-01-22T14:26:31.550Z,187.60
2019-01-22T14:29:09.784Z,188.22
2019-01-22T14:31:48.181Z,179.70
2019-01-22T14:34:24.283Z,191.60
2019-01-22T14:37:00.518Z,174.47
2019-01-22T14:39:38.195Z,172.87
2019-01-22T14:42:13.247Z,184.57
2019-01-22T14:44:51.728Z,173.27
2019-01-22T14:47:26.695Z,165.03
2019-01-22T14:50:04.800Z,152.43
2019-01-22T14:52:40.500Z,153.40
2019-01-22T14:55:15.918Z,162.62
2019-01-22T14:57:57.209Z,155.60
2019-01-22T15:00:32.969Z,164.30
2019-01-22T15:03:13.562Z,141.30
2019-01-22T15:05:48.031Z,137.77
2019-01-22T15:08:22.728Z,156.53
2019-01-22T15:10:57.685Z,137.73
2019-01-22T15:13:34.419Z,143.78
2019-01-22T15:16:11.256Z,135.63
2019-01-22T15:18:45.644Z,147.53
2019-01-22T15:21:38.461Z,138.53
2019-01-22T15:24:14.720Z,162.77
2019-01-22T15:26:49.802Z,145.13
2019-01-22T15:29:24.509Z,154.23
2019-01-22T15:31:59.812Z,154.53
2019-01-22T15:34:37.688Z,145.17
2019-01-22T15:37:13.199Z,154.60
2019-01-22T15:39:56.210Z,159.63
2019-01-22T15:42:29.716Z,149.13
2019-01-22T15:45:12.047Z,150.20
2019-01-22T15:47:46.505Z,142.03
2019-01-22T15:50:22.747Z,132.07
2019-01-22T15:52:56.935Z,103.93
2019-01-22T15:55:33.032Z,109.87
2019-01-22T15:58:07.091Z,116.17
2019-01-22T16:00:41.740Z,103.33
2019-01-22T16:03:15.543Z,73.33
2019-01-22T16:05:49.276Z,74.47
2019-01-22T16:08:26.150Z,71.03
2019-01-22T16:11:00.650Z,63.90
2019-01-22T16:13:37.627Z,68.78
2019-01-22T16:16:14.347Z,65.83
2019-01-22T16:18:51.757Z,62.40
2019-01-22T16:21:27.934Z,56.23
2019-01-22T16:24:07.618Z,55.03
2019-01-22T16:26:53.383Z,56.40
2019-01-22T16:29:24.800Z,48.27
2019-01-22T16:32:00.028Z,48.52
2019-01-22T16:34:34.972Z,59.58
2019-01-22T16:37:08.902Z,57.55
2019-01-22T16:39:47.137Z,48.93
2019-01-22T16:42:22.720Z,48.60
2019-01-22T16:44:56.534Z,43.13
2019-01-22T16:47:34.968Z,45.23
2019-01-22T16:50:19.680Z,39.10
2019-01-22T16:53:01.767Z,44.40
2019-01-22T16:55:52.172Z,38.33
2019-01-22T16:58:33.543Z,32.10
2019-01-22T17:01:08.981Z,31.27
2019-01-22T17:03:44.098Z,33.53
2019-01-22T17:06:18.031Z,34.80
2019-01-22T17:08:52.562Z,30.17
2019-01-22T17:11:35.937Z,32.47
2019-01-22T17:14:28.540Z,39.70
2019-01-22T17:17:06.792Z,20.00
2019-01-22T17:19:41.580Z,35.27
2019-01-22T17:22:18.131Z,17.40
2019-01-22T17:25:05.109Z,20.13
2019-01-22T17:27:41.625Z,18.23
2019-01-22T17:30:17.826Z,23.63
2019-01-22T17:32:55.777Z,21.03
2019-01-22T17:35:39.803Z,26.20
2019-01-22T17:38:16.979Z,16.10
2019-01-22T17:40:50.756Z,20.70
2019-01-22T17:43:26.616Z,24.32
2019-01-22T17:46:03.797Z,15.83
2019-01-22T17:48:40.599Z,20.20
2019-01-22T17:51:16.897Z,24.43
2019-01-22T17:53:54.685Z,20.60
2019-01-22T17:56:33.455Z,16.57
2019-01-22T17:59:09.049Z,27.37
2019-01-22T18:01:50.576Z,15.20
2019-01-22T18:04:31.124Z,20.57
2019-01-22T18:07:05.981Z,24.72
2019-01-22T18:09:43.831Z,21.80
2019-01-22T18:12:21.224Z,21.20
2019-01-22T18:17:56.594Z,21.47
2019-01-22T18:20:40.033Z,18.90
2019-01-22T18:23:17.576Z,23.57
2019-01-22T18:25:54.493Z,19.60
2019-01-22T18:28:33.208Z,25.30
2019-01-22T18:31:07.816Z,19.67
2019-01-22T18:33:41.772Z,23.53
2019-01-22T18:36:20.522Z,29.40
2019-01-22T18:38:56.171Z,27.40
2019-01-22T18:41:30.991Z,20.30
2019-01-22T18:44:13.630Z,22.13
2019-01-22T18:46:48.045Z,25.43
2019-01-22T18:49:23.511Z,32.57
2019-01-22T18:51:57.954Z,31.57
2019-01-22T18:54:31.677Z,24.47
2019-01-22T18:57:13.471Z,21.62
2019-01-22T19:00:05.361Z,36.28
2019-01-22T19:02:43.522Z,32.20
2019-01-22T19:05:27.442Z,25.88
2019-01-22T19:08:05.880Z,34.40
2019-01-22T19:10:43.704Z,26.40
2019-01-22T19:13:26.421Z,23.12
2019-01-22T19:16:00.175Z,24.27
2019-01-22T19:18:33.939Z,26.03
2019-01-22T19:21:11.805Z,25.80
2019-01-22T19:23:46.397Z,24.20
2019-01-22T19:26:20.335Z,21.00
2019-01-22T19:28:54.919Z,22.50
2019-01-22T19:31:32.750Z,26.00
2019-01-22T19:34:07.808Z,23.55
2019-01-22T19:36:42.609Z,27.80
2019-01-22T19:39:18.023Z,23.87
2019-01-22T19:41:53.047Z,24.73
2019-01-22T19:44:27.681Z,20.02
2019-01-22T19:47:02.961Z,22.45
2019-01-22T19:49:38.658Z,21.07
2019-01-22T19:52:11.973Z,16.40
2019-01-22T19:54:46.354Z,18.23
2019-01-22T19:57:20.132Z,21.77
2019-01-22T19:59:54.766Z,17.33
2019-01-22T20:02:31.562Z,19.40
2019-01-22T20:05:06.234Z,22.20
2019-01-22T20:07:41.462Z,16.17
2019-01-22T20:10:17.210Z,18.60
2019-01-22T20:12:51.649Z,20.43
2019-01-22T20:15:27.580Z,15.13
2019-01-22T20:18:02.667Z,27.33
2019-01-22T20:20:36.723Z,17.63
2019-01-22T20:23:11.912Z,19.02
2019-01-22T20:25:48.504Z,16.55
2019-01-22T20:28:22.604Z,19.10
2019-01-22T20:30:56.356Z,22.97
2019-01-22T20:33:30.091Z,20.03
2019-01-22T20:36:03.408Z,21.10
2019-01-22T20:38:37.359Z,18.90
2019-01-22T20:41:11.282Z,22.90
2019-01-22T20:43:46.063Z,17.00
2019-01-22T20:46:19.677Z,17.93
2019-01-22T20:48:53.280Z,19.07
2019-01-22T20:51:27.298Z,20.67
2019-01-22T20:54:00.620Z,19.93
2019-01-22T20:56:34.183Z,20.87
2019-01-22T20:59:07.318Z,24.57
2019-01-22T21:01:41.281Z,21.37
2019-01-22T21:04:14.963Z,18.98
2019-01-22T21:06:50.891Z,22.17
2019-01-22T21:09:24.854Z,30.17
2019-01-22T21:11:58.554Z,22.60
2019-01-22T21:14:32.449Z,22.10
2019-01-22T21:17:06.024Z,22.10
2019-01-22T21:19:39.771Z,22.80
2019-01-22T21:22:13.313Z,19.37
2019-01-22T21:24:46.627Z,24.93
2019-01-22T21:27:20.169Z,21.73
2019-01-22T21:29:55.241Z,21.97
2019-01-22T21:32:28.649Z,23.23
2019-01-22T21:35:03.725Z,20.68
2019-01-22T21:37:37.434Z,23.73
2019-01-22T21:40:13.410Z,30.07
2019-01-22T21:42:47.065Z,27.15
2019-01-22T21:48:31.613Z,20.07
2019-01-22T21:51:05.542Z,31.63
2019-01-22T21:53:59.063Z,21.80
2019-01-22T21:56:33.903Z,28.83
2019-01-22T21:59:08.569Z,25.35
2019-01-22T22:01:43.052Z,22.35
2019-01-22T22:04:35.845Z,27.67
2019-01-22T22:07:09.456Z,24.37
2019-01-22T22:09:43.675Z,26.23
2019-01-22T22:12:18.468Z,28.57
2019-01-22T22:14:52.135Z,24.20
2019-01-22T22:17:25.695Z,30.52
2019-01-22T22:20:00.258Z,29.60
2019-01-22T22:22:33.760Z,21.03
2019-01-22T22:25:10.316Z,22.40
2019-01-22T22:27:44.048Z,26.33
2019-01-22T22:30:37.243Z,26.83
2019-01-22T22:33:12.878Z,22.80
2019-01-22T22:35:47.342Z,24.17
2019-01-22T22:38:24.174Z,25.63
2019-01-22T22:40:58.488Z,27.20
2019-01-22T22:43:32.737Z,26.00
2019-01-22T22:46:07.965Z,25.62
2019-01-22T22:48:43.414Z,25.43
2019-01-22T22:51:20.320Z,24.33
2019-01-22T22:53:54.404Z,27.83
2019-01-22T22:56:29.485Z,35.57
2019-01-22T22:59:04.086Z,34.93
2019-01-22T23:01:40.972Z,34.33
2019-01-22T23:04:14.664Z,34.50
2019-01-22T23:06:48.628Z,34.53
2019-01-22T23:09:22.856Z,35.15
2019-01-22T23:11:57.977Z,36.73
2019-01-22T23:14:32.442Z,38.80
2019-01-22T23:17:07.075Z,25.20
2019-01-22T23:19:41.110Z,27.93
2019-01-22T23:22:15.874Z,37.23
2019-01-22T23:24:49.944Z,30.87
2019-01-22T23:27:24.094Z,32.93
2019-01-22T23:29:59.914Z,35.17
2019-01-22T23:32:39.713Z,33.70
2019-01-22T23:35:13.873Z,36.17
2019-01-22T23:37:48.637Z,39.67
2019-01-22T23:40:23.690Z,34.23
2019-01-22T23:43:07.560Z,32.33
2019-01-22T23:45:42.566Z,36.90
2019-01-22T23:48:16.731Z,44.37
2019-01-22T23:50:54.417Z,42.58
2019-01-22T23:53:28.515Z,39.70
2019-01-22T23:56:02.770Z,32.13
2019-01-22T23:58:36.566Z,37.60
